Time;durP1;ratioP1;P1;durP2;ratioP2;P2;SDS_P1;SDS_P2;PMS_P1;PMS_P2;Temp;Humidity;BMP_temperature;BMP_pressure;BME280_temperature;BME280_humidity;BME280_pressure;Samples;Min_cycle;Max_cycle;Signal;HPM_P1;HPM_P2
2022/10/15 00:00:05;;;;;;;31.02;22.75;;;14.50;99.90;;;;;;5073403;28;20028;-68
2022/10/15 00:02:32;;;;;;;28.98;22.38;;;14.40;99.90;;;;;;5072943;28;20021;-68
2022/10/15 00:04:57;;;;;;;30.65;21.80;;;14.40;99.90;;;;;;5072803;28;20473;-68
2022/10/15 00:07:24;;;;;;;29.38;22.63;;;14.50;99.90;;;;;;5073390;28;20035;-68
2022/10/15 00:09:50;;;;;;;29.27;21.40;;;14.40;99.90;;;;;;5073313;28;20033;-68
2022/10/15 00:12:16;;;;;;;29.92;22.45;;;14.40;99.90;;;;;;5072707;28;20103;-68
2022/10/15 00:14:41;;;;;;;25.40;21.45;;;14.40;99.90;;;;;;5054128;28;20036;-68
2022/10/15 00:17:07;;;;;;;30.42;24.40;;;14.40;99.90;;;;;;5073054;28;20044;-68
2022/10/15 00:19:33;;;;;;;34.75;21.55;;;14.40;99.90;;;;;;5054977;28;20036;-67
2022/10/15 00:21:59;;;;;;;30.88;22.95;;;14.30;99.90;;;;;;5072131;28;20028;-68
2022/10/15 00:24:24;;;;;;;32.42;22.50;;;14.40;99.90;;;;;;5038291;28;20024;-68
2022/10/15 00:26:50;;;;;;;32.33;22.52;;;14.30;99.90;;;;;;5072831;28;20082;-68
2022/10/15 00:29:16;;;;;;;29.25;22.88;;;14.30;99.90;;;;;;5054022;28;20183;-67
2022/10/15 00:31:42;;;;;;;31.83;23.83;;;14.40;99.90;;;;;;5035095;28;20017;-67
2022/10/15 00:34:08;;;;;;;33.92;22.70;;;14.50;99.90;;;;;;5044832;28;20040;-68
2022/10/15 00:36:35;;;;;;;29.02;22.38;;;14.60;99.90;;;;;;5054627;28;20028;-69
2022/10/15 00:39:03;;;;;;;28.02;21.13;;;14.60;99.90;;;;;;5072768;28;20036;-68
2022/10/15 00:41:36;;;;;;;31.30;23.73;;;14.40;99.90;;;;;;5072624;28;20037;-68
2022/10/15 00:44:24;;;;;;;29.65;21.15;;;14.40;99.90;;;;;;5072508;28;20085;-68
2022/10/15 00:47:08;;;;;;;30.10;23.20;;;14.30;99.90;;;;;;5072502;28;20473;-68
2022/10/15 00:49:41;;;;;;;33.65;24.58;;;14.50;99.90;;;;;;5041967;28;20423;-69
2022/10/15 00:52:12;;;;;;;31.13;25.75;;;14.50;99.90;;;;;;5054676;28;20029;-69
2022/10/15 00:54:43;;;;;;;29.70;24.40;;;14.40;99.90;;;;;;5072016;28;20030;-68
2022/10/15 00:57:11;;;;;;;28.63;21.85;;;14.50;99.90;;;;;;5071821;28;20060;-68
2022/10/15 00:59:43;;;;;;;29.05;21.60;;;14.40;99.90;;;;;;5054325;28;20469;-70
2022/10/15 01:02:10;;;;;;;30.02;23.30;;;14.30;99.90;;;;;;5072850;28;20161;-70
2022/10/15 01:04:36;;;;;;;28.75;21.65;;;14.50;99.90;;;;;;5053798;28;20394;-68
2022/10/15 01:07:03;;;;;;;27.10;20.83;;;14.60;99.90;;;;;;5072130;28;20025;-67
2022/10/15 01:09:29;;;;;;;28.30;21.42;;;14.60;99.90;;;;;;5072139;28;20377;-68
2022/10/15 01:11:55;;;;;;;29.58;21.50;;;14.70;99.90;;;;;;5058697;28;20036;-69
2022/10/15 01:14:41;;;;;;;29.08;22.23;;;14.80;99.90;;;;;;5076457;28;20024;-67
2022/10/15 01:17:33;;;;;;;25.23;20.73;;;14.70;99.90;;;;;;5076607;28;20377;-70
2022/10/15 01:20:19;;;;;;;27.75;19.52;;;14.50;99.90;;;;;;5076334;28;20071;-68
2022/10/15 01:23:32;;;;;;;30.65;21.27;;;14.50;99.90;;;;;;5057511;28;20036;-69
2022/10/15 01:26:19;;;;;;;29.27;21.23;;;14.40;99.90;;;;;;5003872;28;20121;-69
2022/10/15 01:29:03;;;;;;;25.60;21.27;;;14.50;99.90;;;;;;5043615;28;20036;-69
2022/10/15 01:31:50;;;;;;;30.38;21.30;;;14.70;99.90;;;;;;5058237;28;20462;-68
2022/10/15 01:34:26;;;;;;;30.30;20.58;;;14.70;99.90;;;;;;5057163;28;20173;-69
2022/10/15 01:37:11;;;;;;;;;;;14.70;99.90;;;;;;5058471;28;20491;-73
2022/10/15 01:39:41;;;;;;;27.40;22.00;;;14.60;99.90;;;;;;5057844;28;20389;-73
2022/10/15 01:42:50;;;;;;;32.75;22.55;;;14.50;99.90;;;;;;5057234;28;20053;-73
2022/10/15 01:45:24;;;;;;;26.40;20.25;;;14.40;99.90;;;;;;5013962;28;20045;-73
2022/10/15 01:48:12;;;;;;;31.08;21.27;;;14.30;99.90;;;;;;5073288;28;20047;-72
2022/10/15 01:50:47;;;;;;;34.28;24.17;;;14.40;99.90;;;;;;5075731;28;20028;-72
2022/10/15 01:53:25;;;;;;;31.13;22.83;;;14.40;99.90;;;;;;5057210;28;20016;-73
2022/10/15 01:55:58;;;;;;;33.25;22.30;;;14.10;99.90;;;;;;5075830;28;20115;-72
2022/10/15 01:58:26;;;;;;;40.88;28.08;;;14.10;99.90;;;;;;5057038;28;20087;-72
2022/10/15 02:00:54;;;;;;;37.97;23.83;;;14.40;99.90;;;;;;5057447;28;20465;-73
2022/10/15 02:03:20;;;;;;;35.28;23.42;;;14.40;99.90;;;;;;5075820;28;20419;-72
2022/10/15 02:06:02;;;;;;;29.75;22.27;;;14.40;99.90;;;;;;5057636;28;20081;-68
2022/10/15 02:08:47;;;;;;;31.17;22.13;;;14.40;99.90;;;;;;5056158;28;20078;-66
2022/10/15 02:11:17;;;;;;;29.70;21.30;;;14.50;99.90;;;;;;5075369;28;20028;-66
2022/10/15 02:14:26;;;;;;;26.83;21.05;;;14.50;99.90;;;;;;5057794;28;20091;-66
2022/10/15 02:17:07;;;;;;;31.73;22.08;;;14.50;99.90;;;;;;4993261;28;20482;-66
2022/10/15 02:20:04;;;;;;;27.05;21.98;;;14.50;99.90;;;;;;5070441;28;20059;-66
2022/10/15 02:22:45;;;;;;;29.95;21.35;;;14.30;99.90;;;;;;5045576;28;20020;-67
2022/10/15 02:25:21;;;;;;;29.23;22.30;;;14.30;99.90;;;;;;5056948;28;20033;-67
2022/10/15 02:27:50;;;;;;;28.20;21.25;;;14.30;99.90;;;;;;5056044;28;20043;-67
2022/10/15 02:30:17;;;;;;;33.08;22.08;;;14.30;99.90;;;;;;5057180;28;20040;-66
2022/10/15 02:32:47;;;;;;;28.27;22.33;;;14.20;99.90;;;;;;5040871;28;20067;-68
2022/10/15 02:35:14;;;;;;;39.42;24.13;;;14.20;99.90;;;;;;5056038;28;20044;-72
2022/10/15 02:37:46;;;;;;;30.30;23.10;;;14.20;99.90;;;;;;5056833;28;20048;-71
2022/10/15 02:40:18;;;;;;;31.45;23.80;;;14.10;99.90;;;;;;5056756;28;20024;-72
2022/10/15 02:42:46;;;;;;;37.00;24.17;;;14.00;99.90;;;;;;5056937;28;20058;-71
2022/10/15 02:45:11;;;;;;;37.17;24.17;;;13.90;99.90;;;;;;5056898;28;20405;-72
2022/10/15 02:47:39;;;;;;;35.55;24.05;;;13.90;99.90;;;;;;5055948;28;20114;-71
2022/10/15 02:50:05;;;;;;;32.67;24.70;;;13.90;99.90;;;;;;5056774;28;20381;-72
2022/10/15 02:52:31;;;;;;;33.92;25.45;;;13.80;99.90;;;;;;5074143;28;20017;-71
2022/10/15 02:54:58;;;;;;;34.47;25.85;;;13.80;99.90;;;;;;5056850;28;20162;-72
2022/10/15 02:57:24;;;;;;;35.72;26.27;;;13.70;99.90;;;;;;5056556;28;20025;-72
2022/10/15 02:59:50;;;;;;;39.78;27.80;;;13.60;99.90;;;;;;5056680;28;20044;-72
2022/10/15 03:02:16;;;;;;;41.13;28.13;;;13.70;99.90;;;;;;5074365;28;20033;-72
2022/10/15 03:04:42;;;;;;;41.05;28.33;;;13.70;99.90;;;;;;5056509;28;20025;-70
2022/10/15 03:07:08;;;;;;;44.95;28.35;;;13.70;99.90;;;;;;5074318;28;20025;-70
2022/10/15 03:09:33;;;;;;;43.17;29.08;;;13.70;99.90;;;;;;5074325;28;20507;-71
2022/10/15 03:12:02;;;;;;;42.28;29.38;;;13.80;99.90;;;;;;5056425;28;20048;-67
2022/10/15 03:14:29;;;;;;;50.03;31.38;;;13.70;99.90;;;;;;5056267;28;20028;-68
2022/10/15 03:16:55;;;;;;;46.72;31.10;;;13.70;99.90;;;;;;5074046;28;20079;-67
2022/10/15 03:19:21;;;;;;;43.75;31.02;;;13.60;99.90;;;;;;5056096;28;20370;-67
2022/10/15 03:21:47;;;;;;;51.53;31.63;;;13.60;99.90;;;;;;5056117;28;20028;-70
2022/10/15 03:24:14;;;;;;;50.20;30.27;;;13.60;99.90;;;;;;5056184;28;20048;-68
2022/10/15 03:26:41;;;;;;;48.58;31.38;;;13.50;99.90;;;;;;5055674;28;20039;-67
2022/10/15 03:29:07;;;;;;;44.65;29.13;;;13.50;99.90;;;;;;5074135;28;20082;-67
2022/10/15 03:31:49;;;;;;;44.63;30.83;;;13.50;99.90;;;;;;5055834;28;20123;-68
2022/10/15 03:34:15;;;;;;;43.65;30.20;;;13.40;99.90;;;;;;5055131;28;20115;-67
2022/10/15 03:36:41;;;;;;;47.63;31.33;;;13.40;99.90;;;;;;5055536;28;20067;-68
2022/10/15 03:39:11;;;;;;;49.80;31.60;;;13.40;99.90;;;;;;5073691;28;20071;-68
2022/10/15 03:41:37;;;;;;;44.53;30.60;;;13.30;99.90;;;;;;5073495;28;20028;-68
2022/10/15 03:44:06;;;;;;;40.92;29.98;;;13.30;99.90;;;;;;5055891;28;20429;-67
2022/10/15 03:46:33;;;;;;;42.05;30.95;;;13.40;99.90;;;;;;5055417;28;20131;-68
2022/10/15 03:49:00;;;;;;;43.22;31.80;;;13.40;99.90;;;;;;5055183;28;20123;-68
2022/10/15 03:51:26;;;;;;;47.47;31.63;;;13.30;99.90;;;;;;5073232;28;20021;-69
2022/10/15 03:53:57;;;;;;;49.65;30.98;;;13.40;99.90;;;;;;5055227;28;20033;-67
2022/10/15 03:56:23;;;;;;;43.85;31.42;;;13.40;99.90;;;;;;5055674;28;20025;-68
2022/10/15 03:58:49;;;;;;;49.05;31.35;;;13.30;99.90;;;;;;5055301;28;20440;-68
2022/10/15 04:01:17;;;;;;;53.67;31.48;;;13.20;99.90;;;;;;5073153;28;20028;-67
2022/10/15 04:03:43;;;;;;;46.22;32.88;;;13.30;99.90;;;;;;5054981;28;20115;-68
2022/10/15 04:06:09;;;;;;;50.97;33.17;;;13.20;99.90;;;;;;5055238;28;20512;-68
2022/10/15 04:08:36;;;;;;;50.67;33.42;;;13.20;99.90;;;;;;5054706;28;20112;-68
2022/10/15 04:11:17;;;;;;;51.20;32.63;;;13.30;99.90;;;;;;5054221;28;20029;-68
2022/10/15 04:13:46;;;;;;;49.97;33.05;;;13.30;99.90;;;;;;5055120;28;20093;-68
2022/10/15 04:16:12;;;;;;;54.42;33.13;;;13.40;99.90;;;;;;5054583;28;20062;-68
2022/10/15 04:18:38;;;;;;;54.58;32.90;;;13.40;99.90;;;;;;5054483;28;20028;-68
2022/10/15 04:21:04;;;;;;;55.67;34.70;;;13.40;99.90;;;;;;5054020;28;20027;-67
2022/10/15 04:23:31;;;;;;;54.85;33.67;;;13.40;99.90;;;;;;5054812;28;20032;-68
2022/10/15 04:26:29;;;;;;;59.08;33.83;;;13.30;99.90;;;;;;5053787;28;20047;-67
2022/10/15 04:28:58;;;;;;;57.42;35.58;;;13.40;99.90;;;;;;5054490;28;20119;-68
2022/10/15 04:31:25;;;;;;;54.33;34.50;;;13.40;99.90;;;;;;5053964;28;20020;-67
2022/10/15 04:33:52;;;;;;;56.22;33.50;;;13.30;99.90;;;;;;5054238;28;20069;-67
2022/10/15 04:36:17;;;;;;;55.35;36.13;;;13.40;99.90;;;;;;5072177;28;20017;-68
2022/10/15 04:38:51;;;;;;;61.03;35.28;;;13.40;99.90;;;;;;5054557;28;20039;-68
2022/10/15 04:41:47;;;;;;;65.72;38.33;;;13.40;99.90;;;;;;5057183;28;20064;-68
2022/10/15 04:44:16;;;;;;;61.63;35.92;;;13.40;99.90;;;;;;5053056;28;20074;-72
2022/10/15 04:46:48;;;;;;;59.50;36.45;;;13.40;99.90;;;;;;5038559;28;20056;-72
2022/10/15 04:49:30;;;;;;;58.30;34.40;;;13.40;99.90;;;;;;5054725;28;20044;-67
2022/10/15 04:51:56;;;;;;;62.42;35.17;;;13.40;99.90;;;;;;5054854;28;20028;-67
2022/10/15 04:54:33;;;;;;;62.35;35.92;;;13.50;99.90;;;;;;5053536;28;20024;-67
2022/10/15 04:57:04;;;;;;;59.53;33.30;;;13.50;99.90;;;;;;5054542;28;20062;-67
2022/10/15 04:59:30;;;;;;;62.88;35.45;;;13.50;99.90;;;;;;5054534;28;20028;-68
2022/10/15 05:02:14;;;;;;;57.55;34.08;;;13.50;99.90;;;;;;5072521;28;20032;-67
2022/10/15 05:04:42;;;;;;;56.05;33.03;;;13.50;99.90;;;;;;5053526;28;20047;-67
2022/10/15 05:07:08;;;;;;;54.90;34.40;;;13.50;99.90;;;;;;5072772;28;20025;-67
2022/10/15 05:09:34;;;;;;;53.78;31.83;;;13.60;99.90;;;;;;5054380;28;20074;-67
2022/10/15 05:12:00;;;;;;;48.55;29.50;;;13.60;99.90;;;;;;5053614;28;20119;-68
2022/10/15 05:14:27;;;;;;;50.83;30.77;;;13.60;99.90;;;;;;5054184;28;20111;-68
2022/10/15 05:17:10;;;;;;;46.72;30.15;;;13.60;99.90;;;;;;5054416;28;20086;-68
2022/10/15 05:19:39;;;;;;;47.10;29.50;;;13.70;99.90;;;;;;5053560;28;20048;-67
2022/10/15 05:22:08;;;;;;;45.03;30.42;;;13.70;99.90;;;;;;5054197;28;20477;-67
2022/10/15 05:24:39;;;;;;;;;;;13.70;99.90;;;;;;5037820;28;20060;-67
2022/10/15 05:27:23;;;;;;;43.60;28.67;;;13.80;99.90;;;;;;5054390;28;19917;-67
2022/10/15 05:29:49;;;;;;;36.67;27.40;;;13.80;99.90;;;;;;5036351;28;20029;-67
2022/10/15 05:32:15;;;;;;;44.55;28.40;;;13.80;99.90;;;;;;5054298;28;20102;-67
2022/10/15 05:34:41;;;;;;;40.65;28.77;;;13.70;99.90;;;;;;5037562;28;20032;-67
2022/10/15 05:37:12;;;;;;;40.22;27.60;;;13.70;99.90;;;;;;5053957;28;20044;-67
2022/10/15 05:39:39;;;;;;;44.58;28.33;;;13.80;99.90;;;;;;5053691;28;20094;-68
2022/10/15 05:42:05;;;;;;;41.95;26.23;;;13.70;99.90;;;;;;5054120;28;20052;-67
2022/10/15 05:44:37;;;;;;;39.22;26.83;;;13.70;99.90;;;;;;5053870;28;20627;-68
2022/10/15 05:47:03;;;;;;;39.78;26.55;;;13.60;99.90;;;;;;5071113;28;20101;-68
2022/10/15 05:49:29;;;;;;;41.90;28.27;;;13.70;99.90;;;;;;5054057;28;20111;-67
2022/10/15 05:52:08;;;;;;;42.08;27.35;;;13.60;99.90;;;;;;5054148;28;20511;-68
2022/10/15 05:55:04;;;;;;;39.35;26.55;;;13.60;99.90;;;;;;5043195;28;20389;-68
2022/10/15 05:57:30;;;;;;;39.90;26.85;;;13.70;99.90;;;;;;5056678;28;20037;-68
2022/10/15 05:59:56;;;;;;;46.78;27.50;;;13.60;99.90;;;;;;5075415;28;20032;-69
2022/10/15 06:02:21;;;;;;;39.15;26.33;;;13.70;99.90;;;;;;5075674;28;20028;-67
2022/10/15 06:04:48;;;;;;;34.45;26.67;;;13.70;99.90;;;;;;5075501;28;20056;-67
2022/10/15 06:07:14;;;;;;;37.30;25.83;;;13.70;99.90;;;;;;5072390;28;20519;-69
2022/10/15 06:09:40;;;;;;;37.97;25.45;;;13.70;99.90;;;;;;5068441;28;20012;-68
2022/10/15 06:12:06;;;;;;;37.22;25.33;;;13.80;99.90;;;;;;5073366;28;20108;-67
2022/10/15 06:14:31;;;;;;;35.72;25.42;;;13.80;99.90;;;;;;5076108;28;20068;-67
2022/10/15 06:16:57;;;;;;;39.15;25.08;;;13.80;99.90;;;;;;5074520;28;20032;-67
2022/10/15 06:19:23;;;;;;;38.58;25.50;;;13.80;99.90;;;;;;5073815;28;20028;-67
2022/10/15 06:21:49;;;;;;;34.28;22.85;;;13.70;99.90;;;;;;5073446;28;20062;-68
2022/10/15 06:24:14;;;;;;;35.53;25.05;;;13.80;99.90;;;;;;5073527;28;20435;-68
2022/10/15 06:26:40;;;;;;;32.63;24.60;;;13.80;99.90;;;;;;5073671;28;20025;-67
2022/10/15 06:29:06;;;;;;;32.22;23.88;;;13.70;99.90;;;;;;5074050;28;20386;-67
2022/10/15 06:31:31;;;;;;;30.35;21.25;;;13.80;99.90;;;;;;5069422;28;20461;-68
2022/10/15 06:33:57;;;;;;;30.35;21.67;;;13.90;99.90;;;;;;5074299;28;20475;-68
2022/10/15 06:36:24;;;;;;;32.80;22.70;;;13.90;99.90;;;;;;5073804;28;20039;-67
2022/10/15 06:38:50;;;;;;;29.85;22.05;;;14.00;99.90;;;;;;5046734;28;20037;-68
2022/10/15 06:41:16;;;;;;;31.33;22.02;;;13.90;99.90;;;;;;5073578;28;20070;-69
2022/10/15 06:43:43;;;;;;;29.17;21.38;;;14.10;99.90;;;;;;5073856;28;20043;-67
2022/10/15 06:46:09;;;;;;;28.45;20.88;;;14.10;99.90;;;;;;5073666;28;20040;-68
2022/10/15 06:48:34;;;;;;;30.98;20.48;;;13.90;99.90;;;;;;5074129;28;20027;-67
2022/10/15 06:51:01;;;;;;;27.92;20.45;;;13.80;99.90;;;;;;5073802;28;20055;-67
2022/10/15 06:53:28;;;;;;;26.35;19.67;;;13.80;99.90;;;;;;5073404;28;20025;-67
2022/10/15 06:55:58;;;;;;;24.48;18.27;;;13.80;99.90;;;;;;5073364;28;20032;-68
2022/10/15 06:58:24;;;;;;;26.80;18.67;;;13.90;99.90;;;;;;5073512;28;20048;-67
2022/10/15 07:00:50;;;;;;;32.28;19.60;;;13.90;99.90;;;;;;5072925;28;20150;-71
2022/10/15 07:03:16;;;;;;;28.98;17.55;;;13.80;99.90;;;;;;5073561;28;20059;-69
2022/10/15 07:05:42;;;;;;;24.98;17.13;;;13.90;99.90;;;;;;5072952;28;20028;-67
2022/10/15 07:08:07;;;;;;;23.98;16.27;;;13.80;99.90;;;;;;5073349;28;20025;-67
2022/10/15 07:10:33;;;;;;;24.33;15.98;;;13.90;99.90;;;;;;5073467;28;20029;-68
2022/10/15 07:13:00;;;;;;;23.60;17.10;;;13.80;99.90;;;;;;5073152;28;20141;-69
2022/10/15 07:15:27;;;;;;;22.65;16.17;;;13.90;99.90;;;;;;5072516;28;20111;-67
2022/10/15 07:17:55;;;;;;;22.35;15.48;;;14.00;99.90;;;;;;5072554;28;20016;-68
2022/10/15 07:20:21;;;;;;;21.40;15.68;;;14.00;99.90;;;;;;5073033;28;20078;-67
2022/10/15 07:22:47;;;;;;;20.67;15.48;;;14.00;99.90;;;;;;5072579;28;20028;-67
2022/10/15 07:25:14;;;;;;;21.63;15.43;;;14.10;99.90;;;;;;5072837;28;20023;-68
2022/10/15 07:27:41;;;;;;;17.52;13.13;;;14.20;99.90;;;;;;5072911;28;20059;-67
2022/10/15 07:30:07;;;;;;;19.13;12.77;;;14.40;99.90;;;;;;5071394;28;20433;-67
2022/10/15 07:32:34;;;;;;;22.77;13.10;;;14.40;99.90;;;;;;5072977;28;20048;-67
2022/10/15 07:34:59;;;;;;;17.85;12.82;;;14.50;99.90;;;;;;5072499;28;20055;-67
2022/10/15 07:37:26;;;;;;;21.23;13.30;;;14.60;99.90;;;;;;5069406;28;20021;-68
2022/10/15 07:39:52;;;;;;;17.67;13.18;;;14.60;99.90;;;;;;5069223;28;20043;-67
2022/10/15 07:42:17;;;;;;;17.08;12.07;;;14.60;99.90;;;;;;5071868;28;20027;-67
2022/10/15 07:44:43;;;;;;;16.40;10.70;;;14.70;99.90;;;;;;5072566;28;20416;-68
2022/10/15 07:47:09;;;;;;;18.60;11.50;;;14.70;99.90;;;;;;5072721;28;20469;-67
2022/10/15 07:49:35;;;;;;;16.40;11.82;;;14.60;99.90;;;;;;5072233;28;20051;-67
2022/10/15 07:52:00;;;;;;;18.38;11.20;;;14.60;99.90;;;;;;5072684;28;20059;-67
2022/10/15 07:54:28;;;;;;;15.05;11.07;;;14.70;99.90;;;;;;5053438;28;20449;-67
2022/10/15 07:56:53;;;;;;;16.67;11.38;;;14.70;99.90;;;;;;5063146;28;20158;-67
2022/10/15 07:59:19;;;;;;;14.00;10.63;;;14.80;99.90;;;;;;5071805;28;20404;-69
2022/10/15 08:01:45;;;;;;;14.98;11.25;;;14.80;99.90;;;;;;5052084;28;20025;-68
2022/10/15 08:04:11;;;;;;;16.50;12.07;;;14.80;99.90;;;;;;5072544;28;20031;-67
2022/10/15 08:06:38;;;;;;;15.02;12.05;;;15.00;99.90;;;;;;5068165;28;20061;-67
2022/10/15 08:09:04;;;;;;;14.88;10.52;;;14.90;99.90;;;;;;5075972;28;20384;-67
2022/10/15 08:11:30;;;;;;;16.52;10.93;;;14.80;99.90;;;;;;5071985;28;20021;-67
2022/10/15 08:13:56;;;;;;;15.98;11.90;;;14.80;99.90;;;;;;5071824;28;20362;-67
2022/10/15 08:16:21;;;;;;;16.95;11.23;;;14.80;99.90;;;;;;5071815;28;20058;-67
2022/10/15 08:18:57;;;;;;;15.75;11.32;;;15.00;99.90;;;;;;5064717;28;20040;-67
2022/10/15 08:21:23;;;;;;;16.85;12.07;;;14.90;99.90;;;;;;5071841;28;20060;-67
2022/10/15 08:23:50;;;;;;;14.93;10.85;;;15.00;99.90;;;;;;5071302;28;20052;-68
2022/10/15 08:26:15;;;;;;;20.58;10.65;;;15.00;99.90;;;;;;5071893;28;20461;-68
2022/10/15 08:28:41;;;;;;;18.05;11.10;;;15.00;99.90;;;;;;5071740;28;20064;-67
2022/10/15 08:31:07;;;;;;;19.20;11.32;;;14.90;99.90;;;;;;5071140;28;20108;-69
2022/10/15 08:33:34;;;;;;;15.93;10.23;;;15.00;99.90;;;;;;5071869;28;20024;-68
2022/10/15 08:36:00;;;;;;;14.40;10.73;;;15.00;99.90;;;;;;5071532;28;20552;-69
2022/10/15 08:38:26;;;;;;;13.45;10.48;;;14.90;99.90;;;;;;5070060;28;20036;-67
2022/10/15 08:40:55;;;;;;;14.18;9.75;;;15.10;99.90;;;;;;5072418;28;20028;-68
2022/10/15 08:43:33;;;;;;;16.75;10.57;;;15.00;99.90;;;;;;5072256;28;20112;-67
2022/10/15 08:46:04;;;;;;;13.82;9.43;;;14.90;99.90;;;;;;5069653;28;20032;-67
2022/10/15 08:48:34;;;;;;;14.07;9.32;;;15.00;99.90;;;;;;5070790;28;20611;-66
2022/10/15 08:51:08;;;;;;;18.90;10.80;;;15.00;99.90;;;;;;5054138;28;20067;-68
2022/10/15 08:54:05;;;;;;;14.02;9.60;;;15.10;99.90;;;;;;5071738;28;20157;-68
2022/10/15 08:56:38;;;;;;;13.57;9.73;;;15.10;99.90;;;;;;5068316;28;20048;-67
2022/10/15 08:59:22;;;;;;;11.98;8.82;;;15.10;99.90;;;;;;5071337;28;20048;-68
2022/10/15 09:02:03;;;;;;;13.25;9.32;;;15.20;99.90;;;;;;5072433;28;20025;-67
2022/10/15 09:04:39;;;;;;;14.43;8.65;;;15.20;99.90;;;;;;5071652;28;20033;-67
2022/10/15 09:07:17;;;;;;;12.23;9.00;;;15.20;99.90;;;;;;5071993;28;20052;-67
2022/10/15 09:09:49;;;;;;;14.80;8.45;;;15.30;99.90;;;;;;5072241;28;20432;-67
2022/10/15 09:12:26;;;;;;;9.35;7.20;;;15.30;99.90;;;;;;5072084;28;20021;-67
2022/10/15 09:14:57;;;;;;;11.20;6.55;;;15.30;99.90;;;;;;5071678;28;20139;-67
2022/10/15 09:17:25;;;;;;;12.18;6.78;;;15.40;99.90;;;;;;5063373;28;20373;-67
2022/10/15 09:19:54;;;;;;;9.13;6.55;;;15.40;99.90;;;;;;5064664;28;20053;-67
2022/10/15 09:22:31;;;;;;;13.20;5.30;;;15.50;99.90;;;;;;5065875;28;20025;-67
2022/10/15 09:24:57;;;;;;;8.02;4.93;;;15.60;99.90;;;;;;5070646;28;20020;-68
2022/10/15 09:27:31;;;;;;;4.90;4.40;;;15.60;99.90;;;;;;5072953;28;20098;-67
2022/10/15 09:30:03;;;;;;;7.22;5.68;;;15.60;99.90;;;;;;5082448;28;21123;-68
2022/10/15 09:33:12;;;;;;;5.43;4.70;;;15.80;99.90;;;;;;5079937;28;20468;-67
2022/10/15 09:35:53;;;;;;;5.93;3.42;;;16.00;99.90;;;;;;5056349;28;20040;-68
2022/10/15 09:38:47;;;;;;;4.60;3.15;;;15.90;99.90;;;;;;5089751;28;20119;-68
2022/10/15 09:41:32;;;;;;;5.20;3.30;;;15.90;99.90;;;;;;5079983;28;20477;-67
2022/10/15 09:44:00;;;;;;;2.78;2.47;;;15.90;99.90;;;;;;5085111;28;20027;-67
2022/10/15 09:46:30;;;;;;;3.67;2.65;;;16.00;99.90;;;;;;5089344;28;20020;-67
2022/10/15 09:49:04;;;;;;;3.10;2.72;;;16.10;99.90;;;;;;5081759;28;20036;-67
2022/10/15 09:51:50;;;;;;;4.60;2.85;;;16.10;99.90;;;;;;5063329;28;20040;-68
2022/10/15 09:54:36;;;;;;;5.97;2.80;;;16.10;99.90;;;;;;5087480;28;20032;-67
2022/10/15 09:57:02;;;;;;;6.90;5.20;;;16.10;99.90;;;;;;5090134;28;20043;-68
2022/10/15 09:59:28;;;;;;;4.43;3.72;;;16.40;99.90;;;;;;5087358;28;20037;-67
2022/10/15 10:01:56;;;;;;;3.08;2.70;;;16.50;99.90;;;;;;5090763;28;20035;-68
2022/10/15 10:04:26;;;;;;;4.13;2.40;;;16.50;99.90;;;;;;5090123;28;20480;-67
2022/10/15 10:06:56;;;;;;;5.00;2.53;;;16.50;99.90;;;;;;5063117;28;20028;-67
2022/10/15 10:09:32;;;;;;;8.07;3.15;;;16.60;99.90;;;;;;5085043;28;20035;-68
2022/10/15 10:12:07;;;;;;;3.08;2.85;;;16.50;99.90;;;;;;5085054;28;20100;-70
2022/10/15 10:14:38;;;;;;;5.20;3.00;;;16.60;99.90;;;;;;5087899;28;20407;-68
2022/10/15 10:17:07;;;;;;;4.93;3.38;;;16.70;99.90;;;;;;5090697;28;20027;-68
2022/10/15 10:19:33;;;;;;;5.53;2.80;;;16.70;99.90;;;;;;5088204;28;20064;-68
2022/10/15 10:22:17;;;;;;;5.32;3.22;;;16.70;99.90;;;;;;5090111;28;20368;-67
2022/10/15 10:24:44;;;;;;;7.55;3.10;;;16.60;99.90;;;;;;5084825;28;20059;-69
2022/10/15 10:27:26;;;;;;;5.72;3.50;;;16.60;99.90;;;;;;5068608;28;20028;-67
2022/10/15 10:29:59;;;;;;;4.63;3.50;;;16.70;99.90;;;;;;5088400;28;20043;-68
2022/10/15 10:32:34;;;;;;;5.45;4.60;;;16.60;99.90;;;;;;5091450;28;20043;-68
2022/10/15 10:35:02;;;;;;;7.18;4.70;;;16.80;99.90;;;;;;5086290;28;20376;-69
2022/10/15 10:37:39;;;;;;;7.40;4.75;;;16.70;99.90;;;;;;5070276;28;20028;-68
2022/10/15 10:40:25;;;;;;;4.60;3.92;;;16.80;99.90;;;;;;5086785;28;20028;-67
2022/10/15 10:43:22;;;;;;;3.67;3.33;;;16.80;99.90;;;;;;5068839;28;20433;-67
2022/10/15 10:46:13;;;;;;;8.32;4.15;;;16.80;99.90;;;;;;5067829;28;20112;-67
2022/10/15 10:48:48;;;;;;;6.78;4.40;;;17.00;99.90;;;;;;5068088;28;20412;-67
2022/10/15 10:51:23;;;;;;;4.28;3.88;;;17.30;99.90;;;;;;5071432;28;20043;-67
2022/10/15 10:53:54;;;;;;;5.95;3.72;;;17.40;99.90;;;;;;5088461;28;20027;-67
2022/10/15 10:56:42;;;;;;;3.97;3.40;;;17.30;99.90;;;;;;5083356;28;20025;-67
2022/10/15 10:59:20;;;;;;;6.38;4.30;;;17.20;99.90;;;;;;5073407;28;20048;-66
2022/10/15 11:01:48;;;;;;;5.38;4.13;;;17.20;99.90;;;;;;5074096;28;20032;-67
2022/10/15 11:04:35;;;;;;;6.63;3.00;;;17.10;99.90;;;;;;5073772;28;20082;-67
2022/10/15 11:07:19;;;;;;;6.82;3.75;;;17.10;99.90;;;;;;5073829;28;20036;-67
2022/10/15 11:10:30;;;;;;;4.32;3.10;;;17.20;99.90;;;;;;5073962;28;20031;-67
2022/10/15 11:13:11;;;;;;;9.30;3.53;;;17.30;99.90;;;;;;5002975;28;20046;-67
2022/10/15 11:15:37;;;;;;;3.38;2.70;;;17.50;99.90;;;;;;5045503;28;20036;-67
2022/10/15 11:18:27;;;;;;;3.92;2.60;;;17.60;99.90;;;;;;5073027;28;21690;-67
2022/10/15 11:21:04;;;;;;;3.05;2.35;;;17.60;99.90;;;;;;5065404;28;20090;-68
2022/10/15 11:23:39;;;;;;;6.85;2.33;;;17.60;99.90;;;;;;5073637;28;20530;-67
2022/10/15 11:26:41;;;;;;;4.15;2.08;;;17.70;99.90;;;;;;5073441;28;20036;-67
2022/10/15 11:29:27;;;;;;;5.07;1.58;;;17.70;99.90;;;;;;5073111;28;20024;-67
2022/10/15 11:32:32;;;;;;;2.05;1.45;;;18.00;99.90;;;;;;5073630;28;20020;-67
2022/10/15 11:35:20;;;;;;;1.50;1.30;;;18.10;99.90;;;;;;5069406;28;20024;-67
2022/10/15 11:38:13;;;;;;;1.60;1.50;;;18.30;99.90;;;;;;5064376;28;20030;-67
2022/10/15 11:40:44;;;;;;;5.40;1.30;;;18.50;99.90;;;;;;5069083;28;20115;-67
2022/10/15 11:43:33;;;;;;;2.03;1.27;;;18.50;99.90;;;;;;5072953;28;20115;-68
2022/10/15 11:46:24;;;;;;;1.25;1.10;;;18.50;99.90;;;;;;5073111;28;20075;-67
2022/10/15 11:48:55;;;;;;;1.85;1.20;;;18.70;99.90;;;;;;5072560;28;20047;-67
2022/10/15 11:51:48;;;;;;;1.35;1.08;;;18.80;99.90;;;;;;5062770;28;20025;-68
2022/10/15 11:54:22;;;;;;;1.40;0.98;;;19.30;99.90;;;;;;5072800;28;20040;-67
2022/10/15 11:56:52;;;;;;;1.33;1.23;;;19.80;99.90;;;;;;5072861;28;20043;-67
2022/10/15 11:59:50;;;;;;;1.20;1.10;;;20.00;99.90;;;;;;5072555;28;20048;-67
2022/10/15 12:02:35;;;;;;;1.25;1.00;;;20.60;99.90;;;;;;5072275;28;20044;-67
2022/10/15 12:05:09;;;;;;;2.33;0.90;;;20.80;99.90;;;;;;5060340;28;20033;-67
2022/10/15 12:07:48;;;;;;;2.15;1.48;;;20.00;99.90;;;;;;5061370;28;20520;-68
2022/10/15 12:10:26;;;;;;;4.65;1.25;;;20.00;99.90;;;;;;5062070;28;20024;-66
2022/10/15 12:13:14;;;;;;;0.93;0.77;;;20.00;99.90;;;;;;5072806;28;20037;-66
2022/10/15 12:16:02;;;;;;;3.63;1.00;;;19.50;99.90;;;;;;5072539;28;20047;-66
2022/10/15 12:18:31;;;;;;;1.50;1.05;;;19.60;99.90;;;;;;5058696;28;20484;-68
2022/10/15 12:20:57;;;;;;;4.97;1.17;;;19.80;99.90;;;;;;5073072;28;20047;-69
2022/10/15 12:23:52;;;;;;;2.28;1.13;;;19.80;99.90;;;;;;5072757;28;20043;-68
2022/10/15 12:26:26;;;;;;;4.63;0.80;;;19.80;99.90;;;;;;5041480;28;20477;-67
2022/10/15 12:28:55;;;;;;;1.58;0.77;;;19.20;99.90;;;;;;5072432;28;20489;-68
2022/10/15 12:31:22;;;;;;;1.75;0.57;;;19.30;99.90;;;;;;5072285;28;20488;-67
2022/10/15 12:33:53;;;;;;;2.47;0.70;;;19.80;99.90;;;;;;5072228;28;20032;-68
2022/10/15 12:36:27;;;;;;;0.83;0.50;;;20.70;99.90;;;;;;5072463;28;20052;-67
2022/10/15 12:38:59;;;;;;;2.80;0.52;;;20.90;99.90;;;;;;5072626;28;20048;-67
2022/10/15 12:41:46;;;;;;;1.42;0.40;;;21.20;99.90;;;;;;5072648;28;20124;-67
2022/10/15 12:44:17;;;;;;;0.20;0.20;;;21.30;99.90;;;;;;5059205;28;20111;-67
2022/10/15 12:46:45;;;;;;;4.18;0.35;;;20.60;99.90;;;;;;5071872;28;20457;-67
2022/10/15 12:49:29;;;;;;;7.50;0.60;;;20.10;99.90;;;;;;5072124;28;20028;-66
2022/10/15 12:52:22;;;;;;;2.00;0.57;;;19.90;99.90;;;;;;5072320;28;20037;-67
2022/10/15 12:54:51;;;;;;;0.47;0.30;;;20.40;99.90;;;;;;5071603;28;20028;-68
2022/10/15 12:57:29;;;;;;;0.70;0.32;;;20.00;99.90;;;;;;5054612;28;20111;-66
2022/10/15 12:59:57;;;;;;;3.83;0.98;;;19.70;99.90;;;;;;5059279;28;20044;-67